Time;durP1;ratioP1;P1;durP2;ratioP2;P2;SDS_P1;SDS_P2;PMS_P1;PMS_P2;Temp;Humidity;BMP_temperature;BMP_pressure;BME280_temperature;BME280_humidity;BME280_pressure;Samples;Min_cycle;Max_cycle;Signal;HPM_P1;HPM_P2
2023/02/11 00:01:41;;;;;;;79.10;28.90;;;;;;;;;;6210374;23;20238;-90
2023/02/11 00:04:46;;;;;;;79.47;26.23;;;;;;;;;;6210994;23;20171;-92
2023/02/11 00:07:52;;;;;;;68.57;24.90;;;;;;;;;;6211037;23;20211;-91
2023/02/11 00:10:58;;;;;;;70.07;25.77;;;;;;;;;;6208944;23;20198;-90
2023/02/11 00:14:06;;;;;;;71.00;24.97;;;;;;;;;;6211554;23;20203;-91
2023/02/11 00:17:14;;;;;;;73.57;24.17;;;;;;;;;;6209934;23;20171;-90
2023/02/11 00:20:20;;;;;;;66.83;24.67;;;;;;;;;;6210013;23;20171;-93
2023/02/11 00:23:26;;;;;;;65.67;22.90;;;;;;;;;;6210971;23;20190;-91
2023/02/11 00:26:32;;;;;;;72.97;22.27;;;;;;;;;;6211030;23;20627;-91
2023/02/11 00:29:37;;;;;;;65.43;21.93;;;;;;;;;;6212187;23;20170;-90
2023/02/11 00:32:43;;;;;;;63.77;22.30;;;;;;;;;;6211049;23;20167;-88
2023/02/11 00:35:49;;;;;;;65.40;21.33;;;;;;;;;;6211081;23;20171;-91
2023/02/11 00:38:57;;;;;;;61.53;20.80;;;;;;;;;;6228329;23;20176;-93
2023/02/11 00:42:03;;;;;;;63.93;20.00;;;;;;;;;;6211498;23;20170;-91
2023/02/11 00:45:09;;;;;;;61.50;20.27;;;;;;;;;;6210400;23;20171;-91
2023/02/11 00:48:15;;;;;;;65.87;20.90;;;;;;;;;;6210952;23;20167;-89
2023/02/11 00:51:20;;;;;;;64.73;21.37;;;;;;;;;;6211910;23;20198;-93
2023/02/11 00:54:26;;;;;;;65.10;21.30;;;;;;;;;;6212606;23;20618;-90
2023/02/11 00:57:32;;;;;;;68.37;21.37;;;;;;;;;;6211996;23;20171;-91
2023/02/11 01:00:50;;;;;;;67.30;21.93;;;;;;;;;;6210659;23;20163;-91
2023/02/11 01:03:56;;;;;;;74.47;23.27;;;;;;;;;;6213252;23;20152;-90
2023/02/11 01:07:01;;;;;;;72.13;22.77;;;;;;;;;;6211506;23;20254;-90
2023/02/11 01:10:07;;;;;;;72.57;23.33;;;;;;;;;;6209763;23;20266;-89
2023/02/11 01:13:12;;;;;;;74.27;23.80;;;;;;;;;;6212028;23;20207;-90
2023/02/11 01:16:18;;;;;;;67.70;22.17;;;;;;;;;;6209887;23;20239;-89
2023/02/11 01:19:25;;;;;;;73.27;22.43;;;;;;;;;;6211339;23;20171;-88
2023/02/11 01:22:31;;;;;;;69.03;23.33;;;;;;;;;;6229435;23;20194;-90
2023/02/11 01:25:37;;;;;;;74.13;24.70;;;;;;;;;;6212662;23;20175;-90
2023/02/11 01:28:42;;;;;;;75.77;23.77;;;;;;;;;;6211639;23;20170;-90
2023/02/11 01:31:47;;;;;;;73.17;24.03;;;;;;;;;;6210671;23;20195;-92
2023/02/11 01:34:53;;;;;;;84.60;28.77;;;;;;;;;;6209478;23;20163;-92
2023/02/11 01:37:58;;;;;;;80.23;26.97;;;;;;;;;;6209669;23;20155;-90
2023/02/11 01:41:06;;;;;;;87.63;25.13;;;;;;;;;;6210407;23;20215;-90
2023/02/11 01:44:24;;;;;;;70.77;22.70;;;;;;;;;;6210963;23;20237;-92
2023/02/11 01:47:29;;;;;;;69.67;19.83;;;;;;;;;;6209529;23;20303;-90
2023/02/11 01:50:35;;;;;;;66.13;23.07;;;;;;;;;;6228851;23;20277;-91
2023/02/11 01:57:27;;;;;;;55.17;19.20;;;;;;;;;;6211992;23;20179;-90
2023/02/11 02:01:08;;;;;;;72.27;23.50;;;;;;;;;;6209239;23;20166;-90
2023/02/11 02:04:16;;;;;;;62.43;18.47;;;;;;;;;;6210701;23;20208;-90
2023/02/11 02:07:26;;;;;;;66.80;21.43;;;;;;;;;;6212752;23;20175;-93
2023/02/11 02:10:32;;;;;;;66.73;20.77;;;;;;;;;;6209852;23;20238;-90
2023/02/11 02:13:38;;;;;;;53.13;18.83;;;;;;;;;;6209848;23;20222;-89
2023/02/11 02:16:43;;;;;;;66.87;22.53;;;;;;;;;;6208423;23;20219;-92
2023/02/11 02:24:11;;;;;;;56.23;18.67;;;;;;;;;;6229022;23;20219;-89
2023/02/11 02:27:22;;;;;;;75.67;26.33;;;;;;;;;;6209247;23;20171;-90
2023/02/11 02:30:40;;;;;;;80.03;28.73;;;;;;;;;;6210731;23;20190;-90
2023/02/11 02:33:51;;;;;;;82.10;27.27;;;;;;;;;;6212309;23;20166;-91
2023/02/11 02:37:00;;;;;;;74.60;24.67;;;;;;;;;;6210139;23;20474;-90
2023/02/11 02:40:07;;;;;;;56.70;21.17;;;;;;;;;;6211882;23;20244;-89
2023/02/11 02:43:13;;;;;;;70.53;21.57;;;;;;;;;;6213762;23;20207;-90
2023/02/11 02:46:19;;;;;;;63.53;21.73;;;;;;;;;;6211975;23;20175;-89
2023/02/11 02:49:25;;;;;;;65.40;20.97;;;;;;;;;;6211914;23;20509;-91
2023/02/11 02:52:35;;;;;;;65.10;22.73;;;;;;;;;;6211108;23;20199;-89
2023/02/11 02:55:51;;;;;;;68.90;22.03;;;;;;;;;;6210377;23;20219;-89
2023/02/11 02:59:14;;;;;;;54.87;18.60;;;;;;;;;;6212087;23;20715;-90
2023/02/11 03:02:25;;;;;;;65.90;19.80;;;;;;;;;;6210416;23;20163;-91
2023/02/11 03:05:38;;;;;;;66.90;21.73;;;;;;;;;;6210815;23;20196;-89
2023/02/11 03:08:46;;;;;;;75.53;24.00;;;;;;;;;;6211683;23;20175;-90
2023/02/11 03:11:51;;;;;;;68.63;23.60;;;;;;;;;;6212590;23;20186;-90
2023/02/11 03:14:57;;;;;;;75.83;24.53;;;;;;;;;;6212232;23;20617;-90
2023/02/11 03:18:06;;;;;;;72.10;22.60;;;;;;;;;;6212018;23;20210;-91
2023/02/11 03:21:14;;;;;;;63.77;22.67;;;;;;;;;;6211296;23;20499;-89
2023/02/11 03:24:21;;;;;;;71.03;22.67;;;;;;;;;;6210594;23;20162;-88
2023/02/11 03:27:30;;;;;;;60.23;19.43;;;;;;;;;;6211599;23;20175;-91
2023/02/11 03:30:39;;;;;;;63.27;19.40;;;;;;;;;;6210957;23;20171;-89
2023/02/11 03:33:51;;;;;;;65.40;21.00;;;;;;;;;;6211819;23;20168;-90
2023/02/11 03:37:03;;;;;;;59.57;17.90;;;;;;;;;;6210341;23;20591;-88
2023/02/11 03:40:09;;;;;;;60.10;19.83;;;;;;;;;;6211570;23;20219;-91
2023/02/11 03:43:17;;;;;;;66.23;20.53;;;;;;;;;;6228676;23;20167;-91
2023/02/11 03:46:24;;;;;;;46.03;16.03;;;;;;;;;;6210280;23;20176;-90
2023/02/11 03:49:31;;;;;;;75.57;25.37;;;;;;;;;;6210303;23;20174;-91
2023/02/11 03:52:37;;;;;;;60.23;19.83;;;;;;;;;;6211732;23;20207;-90
2023/02/11 03:55:43;;;;;;;65.73;20.67;;;;;;;;;;6210272;23;20167;-88
2023/02/11 03:58:49;;;;;;;69.03;22.17;;;;;;;;;;6210090;23;20168;-88
2023/02/11 04:02:24;;;;;;;56.03;20.97;;;;;;;;;;6212859;23;20154;-90
2023/02/11 04:05:29;;;;;;;62.37;19.97;;;;;;;;;;6213487;23;20171;-91
2023/02/11 04:08:36;;;;;;;63.73;20.97;;;;;;;;;;6213853;23;20171;-93
2023/02/11 04:11:41;;;;;;;64.80;20.90;;;;;;;;;;6213677;23;20179;-92
2023/02/11 04:14:46;;;;;;;73.03;23.20;;;;;;;;;;6212860;23;20163;-88
2023/02/11 04:17:52;;;;;;;63.60;21.30;;;;;;;;;;6213700;23;20171;-91
2023/02/11 04:20:57;;;;;;;63.90;19.83;;;;;;;;;;6215079;23;20219;-91
2023/02/11 04:24:04;;;;;;;63.97;22.23;;;;;;;;;;6216076;23;20146;-91
2023/02/11 04:27:09;;;;;;;62.30;20.23;;;;;;;;;;6214990;23;20242;-92
2023/02/11 04:30:14;;;;;;;68.43;21.07;;;;;;;;;;6214253;23;20216;-87
2023/02/11 04:33:19;;;;;;;68.50;23.13;;;;;;;;;;6215256;23;20220;-91
2023/02/11 04:36:25;;;;;;;57.87;21.93;;;;;;;;;;6213108;23;20210;-90
2023/02/11 04:39:31;;;;;;;62.13;20.33;;;;;;;;;;6214380;23;20227;-90
2023/02/11 04:42:36;;;;;;;49.27;19.60;;;;;;;;;;6213043;23;20179;-91
2023/02/11 04:45:41;;;;;;;69.53;20.67;;;;;;;;;;6212967;23;20163;-87
2023/02/11 04:48:46;;;;;;;73.77;21.37;;;;;;;;;;6212899;23;20176;-89
2023/02/11 04:51:51;;;;;;;59.37;18.67;;;;;;;;;;6214816;23;20265;-90
2023/02/11 04:54:57;;;;;;;67.67;21.90;;;;;;;;;;6214120;23;20175;-89
2023/02/11 04:58:03;;;;;;;77.60;28.17;;;;;;;;;;6232023;23;20172;-91
2023/02/11 05:05:21;;;;;;;78.47;24.80;;;;;;;;;;6232531;23;20160;-90
2023/02/11 05:08:26;;;;;;;70.33;22.70;;;;;;;;;;6213968;23;20166;-87
2023/02/11 05:11:35;;;;;;;62.27;22.10;;;;;;;;;;6214481;23;20745;-89
2023/02/11 05:14:40;;;;;;;62.73;19.67;;;;;;;;;;6214634;23;20638;-88
2023/02/11 05:17:45;;;;;;;83.27;28.67;;;;;;;;;;6214847;23;20167;-90
2023/02/11 05:20:56;;;;;;;74.63;24.87;;;;;;;;;;6214333;23;20187;-90
2023/02/11 05:24:01;;;;;;;75.90;23.47;;;;;;;;;;6214681;23;20179;-88
2023/02/11 05:27:08;;;;;;;77.20;23.60;;;;;;;;;;6212874;23;20159;-90
2023/02/11 05:30:13;;;;;;;62.63;21.80;;;;;;;;;;6212780;23;20172;-89
2023/02/11 05:33:18;;;;;;;64.87;20.20;;;;;;;;;;6213527;23;20278;-89
2023/02/11 05:36:23;;;;;;;62.63;21.23;;;;;;;;;;6215042;23;20167;-90
2023/02/11 05:39:28;;;;;;;72.57;22.20;;;;;;;;;;6214213;23;20171;-88
2023/02/11 05:42:35;;;;;;;68.10;23.90;;;;;;;;;;6214387;23;20160;-88
2023/02/11 05:45:41;;;;;;;69.87;23.33;;;;;;;;;;6213728;23;20246;-89
2023/02/11 05:48:46;;;;;;;69.10;23.50;;;;;;;;;;6213618;23;20490;-92
2023/02/11 05:51:51;;;;;;;73.70;24.93;;;;;;;;;;6213207;23;20194;-89
2023/02/11 05:54:56;;;;;;;74.27;25.53;;;;;;;;;;6214488;23;20225;-88
2023/02/11 05:58:04;;;;;;;70.87;24.73;;;;;;;;;;6214918;23;20163;-90
2023/02/11 06:01:10;;;;;;;74.83;25.10;;;;;;;;;;6213572;23;20171;-89
2023/02/11 06:04:21;;;;;;;63.23;22.10;;;;;;;;;;6215874;23;20166;-90
2023/02/11 06:07:27;;;;;;;82.20;27.33;;;;;;;;;;6213872;23;20166;-88
2023/02/11 06:10:32;;;;;;;70.93;23.13;;;;;;;;;;6213705;23;20150;-89
2023/02/11 06:14:09;;;;;;;68.67;24.50;;;;;;;;;;6214625;23;20200;-92
2023/02/11 06:17:16;;;;;;;69.73;22.00;;;;;;;;;;6213792;23;20171;-90
2023/02/11 06:20:22;;;;;;;81.53;26.67;;;;;;;;;;6214490;23;20163;-90
2023/02/11 06:23:27;;;;;;;78.77;27.43;;;;;;;;;;6213017;23;20182;-89
2023/02/11 06:26:33;;;;;;;88.63;29.50;;;;;;;;;;6214385;23;20167;-92
2023/02/11 06:29:39;;;;;;;70.10;25.77;;;;;;;;;;6214985;23;20167;-91
2023/02/11 06:32:46;;;;;;;64.13;24.47;;;;;;;;;;6214490;23;20318;-89
2023/02/11 06:35:52;;;;;;;76.20;24.70;;;;;;;;;;6214702;23;20206;-90
2023/02/11 06:38:57;;;;;;;73.63;21.90;;;;;;;;;;6211196;23;20191;-88
2023/02/11 06:42:03;;;;;;;71.23;23.50;;;;;;;;;;6213487;23;20147;-90
2023/02/11 06:45:09;;;;;;;74.87;24.87;;;;;;;;;;6230338;23;20171;-92
2023/02/11 06:48:16;;;;;;;69.10;22.57;;;;;;;;;;6211496;23;20163;-89
2023/02/11 06:51:21;;;;;;;73.07;21.90;;;;;;;;;;6213231;23;20246;-91
2023/02/11 06:54:27;;;;;;;75.20;24.17;;;;;;;;;;6212750;23;20179;-90
2023/02/11 06:57:33;;;;;;;74.53;26.50;;;;;;;;;;6213088;23;20182;-90
2023/02/11 07:00:39;;;;;;;86.97;29.70;;;;;;;;;;6214703;23;20168;-91
2023/02/11 07:03:47;;;;;;;79.70;27.50;;;;;;;;;;6214326;23;20223;-92
2023/02/11 07:06:52;;;;;;;89.97;30.33;;;;;;;;;;6213318;23;20171;-91
2023/02/11 07:09:57;;;;;;;81.80;27.67;;;;;;;;;;6208797;23;20166;-89
2023/02/11 07:13:02;;;;;;;80.77;28.27;;;;;;;;;;6211690;23;20262;-88
2023/02/11 07:16:07;;;;;;;80.53;28.47;;;;;;;;;;6212795;23;20176;-90
2023/02/11 07:19:19;;;;;;;86.23;27.97;;;;;;;;;;6211858;23;20174;-91
2023/02/11 07:22:24;;;;;;;90.83;30.23;;;;;;;;;;6210826;23;20191;-91
2023/02/11 07:25:30;;;;;;;88.10;29.23;;;;;;;;;;6213469;23;20302;-88
2023/02/11 07:28:36;;;;;;;83.37;31.87;;;;;;;;;;6213599;23;20167;-88
2023/02/11 07:31:41;;;;;;;89.23;30.50;;;;;;;;;;6215234;23;20191;-89
2023/02/11 07:34:51;;;;;;;84.33;29.97;;;;;;;;;;6217278;23;20171;-89
2023/02/11 07:37:58;;;;;;;90.47;30.47;;;;;;;;;;6214637;23;20174;-87
2023/02/11 07:41:03;;;;;;;85.37;28.53;;;;;;;;;;6214514;23;20224;-89
2023/02/11 07:44:09;;;;;;;74.30;28.20;;;;;;;;;;6214327;23;20183;-91
2023/02/11 07:47:15;;;;;;;84.33;30.37;;;;;;;;;;6212261;23;20166;-88
2023/02/11 07:50:21;;;;;;;88.43;31.37;;;;;;;;;;6211870;23;20167;-92
2023/02/11 07:53:27;;;;;;;78.27;31.17;;;;;;;;;;6211010;23;20206;-89
2023/02/11 07:56:34;;;;;;;85.03;31.10;;;;;;;;;;6209817;23;20175;-90
2023/02/11 07:59:39;;;;;;;88.87;31.47;;;;;;;;;;6211924;23;20186;-93
2023/02/11 08:02:44;;;;;;;81.97;28.10;;;;;;;;;;6212837;23;20167;-92
2023/02/11 08:05:51;;;;;;;82.83;29.87;;;;;;;;;;6214008;23;20168;-90
2023/02/11 08:08:56;;;;;;;79.83;29.27;;;;;;;;;;6214024;23;20678;-89
2023/02/11 08:12:06;;;;;;;79.83;30.40;;;;;;;;;;6214250;23;20187;-90
2023/02/11 08:15:12;;;;;;;86.97;31.27;;;;;;;;;;6213637;23;20175;-89
2023/02/11 08:18:18;;;;;;;79.30;28.13;;;;;;;;;;6215306;23;20195;-90
2023/02/11 08:21:25;;;;;;;96.47;31.27;;;;;;;;;;6211553;23;20248;-88
2023/02/11 08:24:30;;;;;;;80.63;29.93;;;;;;;;;;6228911;23;20163;-88
2023/02/11 08:27:36;;;;;;;95.43;34.83;;;;;;;;;;6212814;23;20210;-89
2023/02/11 08:30:41;;;;;;;86.27;32.40;;;;;;;;;;6213401;23;20623;-87
2023/02/11 08:33:47;;;;;;;81.73;31.03;;;;;;;;;;6214709;23;20194;-90
2023/02/11 08:36:54;;;;;;;89.63;32.67;;;;;;;;;;6213866;23;20178;-90
2023/02/11 08:39:59;;;;;;;88.63;32.00;;;;;;;;;;6215096;23;20175;-91
2023/02/11 08:43:05;;;;;;;87.43;32.57;;;;;;;;;;6232197;23;20211;-88
2023/02/11 08:46:12;;;;;;;89.50;31.57;;;;;;;;;;6213906;23;20215;-90
2023/02/11 08:49:18;;;;;;;93.83;34.67;;;;;;;;;;6215224;23;20240;-90
2023/02/11 08:52:26;;;;;;;94.57;31.77;;;;;;;;;;6217540;23;20264;-88
2023/02/11 08:55:31;;;;;;;104.07;32.03;;;;;;;;;;6215214;23;20554;-89
2023/02/11 08:58:37;;;;;;;83.90;31.17;;;;;;;;;;6233976;23;20171;-89
2023/02/11 09:01:42;;;;;;;85.17;31.27;;;;;;;;;;6213688;23;20249;-89
2023/02/11 09:04:48;;;;;;;89.33;32.67;;;;;;;;;;6215564;23;20628;-88
2023/02/11 09:07:56;;;;;;;82.03;32.20;;;;;;;;;;6215542;23;20232;-91
2023/02/11 09:11:02;;;;;;;89.27;33.20;;;;;;;;;;6213116;23;20610;-90
2023/02/11 09:14:07;;;;;;;90.93;32.93;;;;;;;;;;6214438;23;20191;-88
2023/02/11 09:17:12;;;;;;;88.30;33.90;;;;;;;;;;6216386;23;20170;-89
2023/02/11 09:20:34;;;;;;;92.90;34.33;;;;;;;;;;6214618;23;20207;-91
2023/02/11 09:23:43;;;;;;;105.93;34.93;;;;;;;;;;6233001;23;20191;-89
2023/02/11 09:26:49;;;;;;;94.83;34.27;;;;;;;;;;6216192;23;20555;-90
2023/02/11 09:29:55;;;;;;;91.17;33.50;;;;;;;;;;6216049;23;20229;-91
2023/02/11 09:33:01;;;;;;;88.03;30.40;;;;;;;;;;6215379;23;20643;-91
2023/02/11 09:36:07;;;;;;;90.53;31.90;;;;;;;;;;6217395;23;20218;-92
2023/02/11 09:39:15;;;;;;;94.90;34.07;;;;;;;;;;6215522;23;20502;-90
2023/02/11 09:42:33;;;;;;;95.00;33.17;;;;;;;;;;6231950;23;20623;-89
2023/02/11 09:45:39;;;;;;;98.43;33.97;;;;;;;;;;6215407;23;20175;-89
2023/02/11 09:48:46;;;;;;;97.00;35.23;;;;;;;;;;6215053;23;20175;-90
2023/02/11 09:51:54;;;;;;;89.67;34.87;;;;;;;;;;6215594;23;20206;-91
2023/02/11 09:55:03;;;;;;;92.60;34.30;;;;;;;;;;6216711;23;20184;-91
2023/02/11 09:58:13;;;;;;;88.47;32.03;;;;;;;;;;6214174;23;20167;-91
2023/02/11 10:01:24;;;;;;;102.30;33.97;;;;;;;;;;6199113;23;20171;-89
2023/02/11 10:04:38;;;;;;;86.73;32.33;;;;;;;;;;6215317;23;20158;-90
2023/02/11 10:07:47;;;;;;;91.47;33.97;;;;;;;;;;6215791;23;20163;-91
2023/02/11 10:11:07;;;;;;;84.60;32.57;;;;;;;;;;6215981;23;20167;-89
2023/02/11 10:14:26;;;;;;;85.90;33.67;;;;;;;;;;6213263;23;20190;-89
2023/02/11 10:17:36;;;;;;;92.17;34.80;;;;;;;;;;6214451;23;20170;-90
2023/02/11 10:20:51;;;;;;;88.67;34.97;;;;;;;;;;6217441;23;20187;-92
2023/02/11 10:23:58;;;;;;;93.23;33.83;;;;;;;;;;6214362;23;20190;-92
2023/02/11 10:27:07;;;;;;;93.80;33.37;;;;;;;;;;6213920;23;20163;-89
2023/02/11 10:30:20;;;;;;;95.47;34.00;;;;;;;;;;6213816;23;20174;-90
2023/02/11 10:33:27;;;;;;;94.37;33.70;;;;;;;;;;6215765;23;20190;-91
2023/02/11 10:36:35;;;;;;;91.83;33.10;;;;;;;;;;6215307;23;20171;-90
2023/02/11 10:39:42;;;;;;;92.57;32.70;;;;;;;;;;6234396;23;20219;-91
2023/02/11 10:42:51;;;;;;;87.87;32.20;;;;;;;;;;6215253;23;20350;-91
2023/02/11 10:45:57;;;;;;;81.57;31.73;;;;;;;;;;6215877;23;20253;-92
2023/02/11 10:49:03;;;;;;;96.90;31.80;;;;;;;;;;6215905;23;20208;-90
2023/02/11 10:52:23;;;;;;;81.13;31.73;;;;;;;;;;6215940;23;20214;-91
2023/02/11 10:55:29;;;;;;;93.90;34.20;;;;;;;;;;6215185;23;20175;-91
2023/02/11 10:58:41;;;;;;;90.00;34.00;;;;;;;;;;6213689;23;20191;-92
2023/02/11 11:01:48;;;;;;;98.50;34.10;;;;;;;;;;6211723;23;20222;-89
2023/02/11 11:05:00;;;;;;;92.87;32.80;;;;;;;;;;6216487;23;20210;-91
2023/02/11 11:08:07;;;;;;;95.53;35.20;;;;;;;;;;6215751;23;20187;-90
2023/02/11 11:11:13;;;;;;;85.20;33.70;;;;;;;;;;6231344;23;20178;-91
2023/02/11 11:14:40;;;;;;;81.90;32.37;;;;;;;;;;6215281;23;20206;-90
2023/02/11 11:17:54;;;;;;;78.17;30.63;;;;;;;;;;6214275;23;20205;-90
2023/02/11 11:21:00;;;;;;;79.80;30.53;;;;;;;;;;6216248;23;20167;-91
2023/02/11 11:24:06;;;;;;;75.03;30.43;;;;;;;;;;6214318;23;20183;-92
2023/02/11 11:27:19;;;;;;;73.03;30.30;;;;;;;;;;6214637;23;20214;-91
2023/02/11 11:30:28;;;;;;;78.70;30.20;;;;;;;;;;6211600;23;20174;-89
2023/02/11 11:33:36;;;;;;;91.50;31.17;;;;;;;;;;6213724;23;20195;-90
2023/02/11 11:36:42;;;;;;;83.03;31.53;;;;;;;;;;6214296;23;20168;-91
2023/02/11 11:39:52;;;;;;;71.10;28.73;;;;;;;;;;6215507;23;20166;-90
2023/02/11 11:43:05;;;;;;;69.43;29.07;;;;;;;;;;6214562;23;20163;-91
2023/02/11 11:46:11;;;;;;;79.80;30.73;;;;;;;;;;6215304;23;20171;-91
2023/02/11 21:45:01;;;;;;;69.83;29.43;;;;;;;;;;6117451;23;1406587;-91
2023/02/11 21:48:07;;;;;;;62.67;26.27;;;;;;;;;;6159170;23;20381;-91
2023/02/11 21:51:15;;;;;;;60.47;26.43;;;;;;;;;;6159574;23;20192;-90
2023/02/11 21:54:22;;;;;;;67.37;28.77;;;;;;;;;;6158951;23;20179;-90
2023/02/11 21:57:27;;;;;;;67.20;27.30;;;;;;;;;;6158144;23;20245;-91
2023/02/11 22:00:59;;;;;;;88.90;35.73;;;;;;;;;;6157446;23;20172;-90
2023/02/11 22:04:06;;;;;;;84.27;32.83;;;;;;;;;;6158605;23;20239;-90
2023/02/11 22:07:12;;;;;;;74.60;31.37;;;;;;;;;;6160125;23;20189;-92
2023/02/11 22:10:22;;;;;;;80.50;30.80;;;;;;;;;;6160876;23;20173;-91
2023/02/11 22:13:28;;;;;;;70.37;29.13;;;;;;;;;;6158130;23;20180;-89
2023/02/11 22:16:34;;;;;;;81.03;29.83;;;;;;;;;;6157758;23;20180;-89
2023/02/11 22:23:30;;;;;;;74.60;30.93;;;;;;;;;;6157964;23;20164;-92
2023/02/11 22:26:35;;;;;;;72.67;30.20;;;;;;;;;;6157184;23;20163;-90
2023/02/11 22:29:42;;;;;;;74.13;29.73;;;;;;;;;;6161042;23;20217;-90
2023/02/11 22:32:48;;;;;;;74.67;29.93;;;;;;;;;;6157480;23;20220;-91
2023/02/11 22:35:58;;;;;;;79.70;31.10;;;;;;;;;;6158840;23;20215;-91
2023/02/11 22:39:07;;;;;;;74.63;30.57;;;;;;;;;;6159041;23;20168;-92
2023/02/11 22:42:12;;;;;;;74.30;30.30;;;;;;;;;;6157874;23;20167;-88
2023/02/11 22:45:18;;;;;;;74.20;30.30;;;;;;;;;;6157432;23;20184;-90
2023/02/11 22:48:23;;;;;;;69.13;29.87;;;;;;;;;;6157030;23;20172;-89
2023/02/11 22:51:30;;;;;;;77.07;30.03;;;;;;;;;;6159410;23;20224;-91
2023/02/11 22:54:40;;;;;;;71.27;29.67;;;;;;;;;;6159613;23;20627;-93
2023/02/11 22:57:46;;;;;;;69.83;29.07;;;;;;;;;;6159077;23;20213;-91
2023/02/11 23:01:09;;;;;;;78.87;30.37;;;;;;;;;;6160749;23;20157;-92
2023/02/11 23:04:17;;;;;;;76.77;30.53;;;;;;;;;;6160184;23;20173;-92
2023/02/11 23:07:23;;;;;;;76.87;30.23;;;;;;;;;;6159397;23;20172;-90
2023/02/11 23:10:30;;;;;;;69.83;29.40;;;;;;;;;;6159471;23;20197;-92
2023/02/11 23:13:38;;;;;;;74.43;30.87;;;;;;;;;;6157809;23;20224;-90
2023/02/11 23:16:43;;;;;;;74.60;30.73;;;;;;;;;;6157168;23;20156;-90
2023/02/11 23:19:48;;;;;;;74.00;30.37;;;;;;;;;;6158194;23;20152;-92
2023/02/11 23:22:54;;;;;;;72.97;28.90;;;;;;;;;;6159056;23;20192;-90
2023/02/11 23:26:02;;;;;;;69.27;28.93;;;;;;;;;;6158607;23;20212;-90
2023/02/11 23:29:08;;;;;;;74.23;28.77;;;;;;;;;;6158482;23;20168;-91
2023/02/11 23:32:15;;;;;;;72.60;29.83;;;;;;;;;;6158559;23;20200;-91
2023/02/11 23:35:22;;;;;;;72.30;29.13;;;;;;;;;;6160801;23;20188;-91
2023/02/11 23:38:28;;;;;;;65.40;28.07;;;;;;;;;;6160867;23;20164;-90
2023/02/11 23:41:36;;;;;;;82.03;30.80;;;;;;;;;;6160706;23;20176;-90
2023/02/11 23:44:42;;;;;;;69.53;29.97;;;;;;;;;;6172822;23;20192;-91
2023/02/11 23:47:48;;;;;;;70.87;30.13;;;;;;;;;;6177442;23;20197;-91
2023/02/11 23:50:54;;;;;;;68.57;28.07;;;;;;;;;;6176259;23;20153;-89
2023/02/11 23:53:59;;;;;;;70.83;28.90;;;;;;;;;;6175087;23;20597;-90
2023/02/11 23:57:07;;;;;;;66.93;26.57;;;;;;;;;;6176146;23;20275;-91
